sensor_id;sensor_type;location;lat;lon;timestamp;P1;durP1;ratioP1;P2;durP2;ratioP2
9976;SDS011;5029;47.378;11.776;2022-07-23T00:00:28;8.93;;;8.27;;
9976;SDS011;5029;47.378;11.776;2022-07-23T00:05:39;8.47;;;7.77;;
9976;SDS011;5029;47.378;11.776;2022-07-23T00:10:43;7.57;;;6.97;;
9976;SDS011;5029;47.378;11.776;2022-07-23T00:15:48;7.83;;;7.13;;
9976;SDS011;5029;47.378;11.776;2022-07-23T00:20:51;7.70;;;7.03;;
9976;SDS011;5029;47.378;11.776;2022-07-23T00:25:55;7.30;;;6.70;;
9976;SDS011;5029;47.378;11.776;2022-07-23T00:31:00;7.33;;;6.73;;
9976;SDS011;5029;47.378;11.776;2022-07-23T00:36:04;7.43;;;6.83;;
9976;SDS011;5029;47.378;11.776;2022-07-23T00:41:08;7.70;;;7.07;;
9976;SDS011;5029;47.378;11.776;2022-07-23T00:46:13;7.40;;;6.80;;
9976;SDS011;5029;47.378;11.776;2022-07-23T00:51:22;8.03;;;7.23;;
9976;SDS011;5029;47.378;11.776;2022-07-23T00:56:25;6.93;;;6.43;;
9976;SDS011;5029;47.378;11.776;2022-07-23T01:01:31;7.60;;;7.00;;
9976;SDS011;5029;47.378;11.776;2022-07-23T01:06:34;8.17;;;7.47;;
9976;SDS011;5029;47.378;11.776;2022-07-23T01:11:40;8.10;;;7.47;;
9976;SDS011;5029;47.378;11.776;2022-07-23T01:16:46;8.33;;;7.53;;
9976;SDS011;5029;47.378;11.776;2022-07-23T01:21:50;9.00;;;8.30;;
9976;SDS011;5029;47.378;11.776;2022-07-23T01:26:57;7.30;;;6.60;;
9976;SDS011;5029;47.378;11.776;2022-07-23T01:32:01;8.00;;;6.30;;
9976;SDS011;5029;47.378;11.776;2022-07-23T01:37:05;7.30;;;6.60;;
9976;SDS011;5029;47.378;11.776;2022-07-23T01:42:10;6.40;;;5.90;;
9976;SDS011;5029;47.378;11.776;2022-07-23T01:47:13;6.33;;;5.90;;
9976;SDS011;5029;47.378;11.776;2022-07-23T01:52:17;7.70;;;7.07;;
9976;SDS011;5029;47.378;11.776;2022-07-23T01:57:22;8.37;;;7.67;;
9976;SDS011;5029;47.378;11.776;2022-07-23T02:02:25;9.33;;;8.43;;
9976;SDS011;5029;47.378;11.776;2022-07-23T02:07:29;9.90;;;9.00;;
9976;SDS011;5029;47.378;11.776;2022-07-23T02:12:36;8.50;;;7.80;;
9976;SDS011;5029;47.378;11.776;2022-07-23T02:17:40;9.10;;;8.30;;
9976;SDS011;5029;47.378;11.776;2022-07-23T02:22:44;10.20;;;9.40;;
9976;SDS011;5029;47.378;11.776;2022-07-23T02:27:49;10.70;;;9.60;;
9976;SDS011;5029;47.378;11.776;2022-07-23T02:32:52;11.13;;;10.23;;
9976;SDS011;5029;47.378;11.776;2022-07-23T02:37:56;10.70;;;9.80;;
9976;SDS011;5029;47.378;11.776;2022-07-23T02:43:01;10.60;;;9.60;;
9976;SDS011;5029;47.378;11.776;2022-07-23T02:48:04;9.10;;;8.30;;
9976;SDS011;5029;47.378;11.776;2022-07-23T02:53:08;7.70;;;6.97;;
9976;SDS011;5029;47.378;11.776;2022-07-23T02:58:13;6.93;;;6.40;;
9976;SDS011;5029;47.378;11.776;2022-07-23T03:03:17;8.00;;;6.90;;
9976;SDS011;5029;47.378;11.776;2022-07-23T03:08:20;7.97;;;7.03;;
9976;SDS011;5029;47.378;11.776;2022-07-23T03:13:25;8.13;;;7.50;;
9976;SDS011;5029;47.378;11.776;2022-07-23T03:18:29;9.17;;;8.37;;
9976;SDS011;5029;47.378;11.776;2022-07-23T03:23:40;10.13;;;9.30;;
9976;SDS011;5029;47.378;11.776;2022-07-23T03:28:45;10.43;;;9.40;;
9976;SDS011;5029;47.378;11.776;2022-07-23T03:33:49;11.67;;;10.63;;
9976;SDS011;5029;47.378;11.776;2022-07-23T03:38:52;12.20;;;11.20;;
9976;SDS011;5029;47.378;11.776;2022-07-23T03:43:57;12.20;;;11.20;;
9976;SDS011;5029;47.378;11.776;2022-07-23T03:49:02;12.13;;;10.90;;
9976;SDS011;5029;47.378;11.776;2022-07-23T03:54:07;13.30;;;11.93;;
9976;SDS011;5029;47.378;11.776;2022-07-23T03:59:12;13.70;;;12.50;;
9976;SDS011;5029;47.378;11.776;2022-07-23T04:04:23;13.70;;;12.50;;
9976;SDS011;5029;47.378;11.776;2022-07-23T04:09:27;13.80;;;12.47;;
9976;SDS011;5029;47.378;11.776;2022-07-23T04:14:32;13.30;;;12.03;;
9976;SDS011;5029;47.378;11.776;2022-07-23T04:19:36;13.47;;;12.00;;
9976;SDS011;5029;47.378;11.776;2022-07-23T04:24:42;12.57;;;11.50;;
9976;SDS011;5029;47.378;11.776;2022-07-23T04:29:47;13.10;;;11.77;;
9976;SDS011;5029;47.378;11.776;2022-07-23T04:34:50;13.03;;;11.93;;
9976;SDS011;5029;47.378;11.776;2022-07-23T04:39:54;12.47;;;11.27;;
9976;SDS011;5029;47.378;11.776;2022-07-23T04:44:59;10.80;;;9.90;;
9976;SDS011;5029;47.378;11.776;2022-07-23T04:50:02;11.40;;;10.33;;
9976;SDS011;5029;47.378;11.776;2022-07-23T04:55:07;9.00;;;8.10;;
9976;SDS011;5029;47.378;11.776;2022-07-23T05:00:13;8.63;;;7.83;;
9976;SDS011;5029;47.378;11.776;2022-07-23T05:05:17;10.10;;;9.30;;
9976;SDS011;5029;47.378;11.776;2022-07-23T05:10:20;10.20;;;9.37;;
9976;SDS011;5029;47.378;11.776;2022-07-23T05:15:28;10.07;;;9.17;;
9976;SDS011;5029;47.378;11.776;2022-07-23T05:20:32;9.63;;;8.93;;
9976;SDS011;5029;47.378;11.776;2022-07-23T05:25:35;8.30;;;7.60;;
9976;SDS011;5029;47.378;11.776;2022-07-23T05:30:40;8.00;;;7.30;;
9976;SDS011;5029;47.378;11.776;2022-07-23T05:35:44;8.43;;;7.63;;
9976;SDS011;5029;47.378;11.776;2022-07-23T05:40:48;6.70;;;6.10;;
9976;SDS011;5029;47.378;11.776;2022-07-23T05:45:52;6.90;;;6.30;;
9976;SDS011;5029;47.378;11.776;2022-07-23T05:50:56;7.30;;;6.60;;
9976;SDS011;5029;47.378;11.776;2022-07-23T05:55:59;7.43;;;6.43;;
9976;SDS011;5029;47.378;11.776;2022-07-23T06:01:05;7.43;;;6.77;;
9976;SDS011;5029;47.378;11.776;2022-07-23T06:06:08;6.37;;;5.87;;
9976;SDS011;5029;47.378;11.776;2022-07-23T06:11:12;7.27;;;6.77;;
9976;SDS011;5029;47.378;11.776;2022-07-23T06:16:17;6.60;;;6.10;;
9976;SDS011;5029;47.378;11.776;2022-07-23T06:21:20;6.10;;;5.70;;
9976;SDS011;5029;47.378;11.776;2022-07-23T06:26:44;5.83;;;5.43;;
9976;SDS011;5029;47.378;11.776;2022-07-23T06:31:49;6.67;;;6.07;;
9976;SDS011;5029;47.378;11.776;2022-07-23T06:36:53;6.30;;;5.30;;
9976;SDS011;5029;47.378;11.776;2022-07-23T06:41:56;5.93;;;5.43;;
9976;SDS011;5029;47.378;11.776;2022-07-23T06:47:03;6.77;;;6.00;;
9976;SDS011;5029;47.378;11.776;2022-07-23T06:52:06;6.00;;;5.43;;
9976;SDS011;5029;47.378;11.776;2022-07-23T06:57:10;5.10;;;4.70;;
9976;SDS011;5029;47.378;11.776;2022-07-23T07:02:15;4.77;;;4.47;;
9976;SDS011;5029;47.378;11.776;2022-07-23T07:07:18;5.03;;;4.50;;
9976;SDS011;5029;47.378;11.776;2022-07-23T07:12:22;4.70;;;4.30;;
9976;SDS011;5029;47.378;11.776;2022-07-23T07:17:27;5.13;;;4.73;;
9976;SDS011;5029;47.378;11.776;2022-07-23T07:22:30;4.63;;;4.33;;
9976;SDS011;5029;47.378;11.776;2022-07-23T07:27:34;5.57;;;5.17;;
9976;SDS011;5029;47.378;11.776;2022-07-23T07:32:38;5.23;;;4.83;;
9976;SDS011;5029;47.378;11.776;2022-07-23T07:37:58;6.60;;;6.10;;
9976;SDS011;5029;47.378;11.776;2022-07-23T07:43:02;7.33;;;6.63;;
9976;SDS011;5029;47.378;11.776;2022-07-23T07:48:07;7.73;;;6.93;;
9976;SDS011;5029;47.378;11.776;2022-07-23T07:53:10;7.60;;;7.00;;
9976;SDS011;5029;47.378;11.776;2022-07-23T07:58:14;7.10;;;6.50;;
9976;SDS011;5029;47.378;11.776;2022-07-23T08:03:19;9.67;;;7.23;;
9976;SDS011;5029;47.378;11.776;2022-07-23T08:08:22;7.17;;;6.47;;
9976;SDS011;5029;47.378;11.776;2022-07-23T08:13:26;7.70;;;7.00;;
9976;SDS011;5029;47.378;11.776;2022-07-23T08:18:31;7.23;;;6.63;;
9976;SDS011;5029;47.378;11.776;2022-07-23T08:23:34;6.93;;;6.30;;
9976;SDS011;5029;47.378;11.776;2022-07-23T08:28:38;6.93;;;6.33;;
9976;SDS011;5029;47.378;11.776;2022-07-23T08:33:43;6.87;;;6.33;;
9976;SDS011;5029;47.378;11.776;2022-07-23T08:38:46;6.70;;;6.10;;
9976;SDS011;5029;47.378;11.776;2022-07-23T08:43:50;6.53;;;6.07;;
9976;SDS011;5029;47.378;11.776;2022-07-23T08:48:56;6.67;;;6.13;;
9976;SDS011;5029;47.378;11.776;2022-07-23T08:54:00;6.40;;;5.80;;
9976;SDS011;5029;47.378;11.776;2022-07-23T08:59:05;7.40;;;6.80;;
9976;SDS011;5029;47.378;11.776;2022-07-23T09:04:09;7.90;;;7.30;;
9976;SDS011;5029;47.378;11.776;2022-07-23T09:09:16;7.50;;;6.90;;
9976;SDS011;5029;47.378;11.776;2022-07-23T09:14:35;8.10;;;7.37;;
9976;SDS011;5029;47.378;11.776;2022-07-23T09:19:41;6.87;;;6.27;;
9976;SDS011;5029;47.378;11.776;2022-07-23T09:30:12;8.07;;;6.63;;
9976;SDS011;5029;47.378;11.776;2022-07-23T09:35:17;7.73;;;6.93;;
9976;SDS011;5029;47.378;11.776;2022-07-23T09:40:20;6.37;;;5.77;;
9976;SDS011;5029;47.378;11.776;2022-07-23T09:45:24;5.70;;;5.20;;
9976;SDS011;5029;47.378;11.776;2022-07-23T09:50:29;6.73;;;6.07;;
9976;SDS011;5029;47.378;11.776;2022-07-23T09:55:33;5.97;;;5.50;;
9976;SDS011;5029;47.378;11.776;2022-07-23T10:00:38;5.90;;;5.40;;
9976;SDS011;5029;47.378;11.776;2022-07-23T10:05:45;6.60;;;5.50;;
9976;SDS011;5029;47.378;11.776;2022-07-23T10:10:50;5.67;;;5.23;;
9976;SDS011;5029;47.378;11.776;2022-07-23T10:15:55;6.43;;;5.93;;
9976;SDS011;5029;47.378;11.776;2022-07-23T10:21:01;6.50;;;5.90;;
9976;SDS011;5029;47.378;11.776;2022-07-23T10:26:10;5.37;;;4.97;;
9976;SDS011;5029;47.378;11.776;2022-07-23T10:31:20;5.30;;;4.90;;
9976;SDS011;5029;47.378;11.776;2022-07-23T10:36:56;4.80;;;4.40;;
9976;SDS011;5029;47.378;11.776;2022-07-23T10:42:10;5.20;;;4.50;;
9976;SDS011;5029;47.378;11.776;2022-07-23T10:47:20;4.23;;;3.83;;
9976;SDS011;5029;47.378;11.776;2022-07-23T10:58:23;3.90;;;3.53;;
9976;SDS011;5029;47.378;11.776;2022-07-23T11:03:55;5.13;;;4.50;;
9976;SDS011;5029;47.378;11.776;2022-07-23T11:20:18;5.93;;;5.35;;
9976;SDS011;5029;47.378;11.776;2022-07-23T11:25:32;4.90;;;4.60;;
9976;SDS011;5029;47.378;11.776;2022-07-23T11:30:40;4.88;;;4.40;;
9976;SDS011;5029;47.378;11.776;2022-07-23T11:35:45;4.25;;;3.85;;
9976;SDS011;5029;47.378;11.776;2022-07-23T11:40:52;3.40;;;3.10;;
9976;SDS011;5029;47.378;11.776;2022-07-23T11:45:59;3.38;;;3.10;;
9976;SDS011;5029;47.378;11.776;2022-07-23T11:51:03;3.10;;;2.90;;
9976;SDS011;5029;47.378;11.776;2022-07-23T11:56:09;3.63;;;3.33;;
9976;SDS011;5029;47.378;11.776;2022-07-23T12:01:14;3.45;;;3.15;;
9976;SDS011;5029;47.378;11.776;2022-07-23T12:06:21;3.97;;;3.60;;
9976;SDS011;5029;47.378;11.776;2022-07-23T12:11:25;4.05;;;3.55;;
9976;SDS011;5029;47.378;11.776;2022-07-23T12:16:29;4.03;;;3.17;;
9976;SDS011;5029;47.378;11.776;2022-07-23T12:21:32;3.92;;;3.63;;
9976;SDS011;5029;47.378;11.776;2022-07-23T12:26:38;3.47;;;3.22;;
9976;SDS011;5029;47.378;11.776;2022-07-23T12:31:42;3.60;;;3.30;;
9976;SDS011;5029;47.378;11.776;2022-07-23T12:36:45;3.88;;;3.58;;
9976;SDS011;5029;47.378;11.776;2022-07-23T12:41:52;3.40;;;3.17;;
9976;SDS011;5029;47.378;11.776;2022-07-23T12:46:56;3.05;;;2.85;;
9976;SDS011;5029;47.378;11.776;2022-07-23T12:51:59;3.78;;;2.95;;
9976;SDS011;5029;47.378;11.776;2022-07-23T12:57:04;3.00;;;2.75;;
9976;SDS011;5029;47.378;11.776;2022-07-23T13:02:08;2.65;;;2.45;;
9976;SDS011;5029;47.378;11.776;2022-07-23T13:07:14;2.90;;;2.70;;
9976;SDS011;5029;47.378;11.776;2022-07-23T13:12:18;3.55;;;3.03;;
9976;SDS011;5029;47.378;11.776;2022-07-23T13:17:22;3.00;;;2.80;;
9976;SDS011;5029;47.378;11.776;2022-07-23T13:22:25;3.13;;;2.92;;
9976;SDS011;5029;47.378;11.776;2022-07-23T13:27:30;4.13;;;3.08;;
9976;SDS011;5029;47.378;11.776;2022-07-23T13:32:40;3.47;;;3.25;;
9976;SDS011;5029;47.378;11.776;2022-07-23T13:37:44;3.72;;;2.90;;
9976;SDS011;5029;47.378;11.776;2022-07-23T13:42:49;2.85;;;2.63;;
9976;SDS011;5029;47.378;11.776;2022-07-23T13:47:54;3.10;;;2.80;;
9976;SDS011;5029;47.378;11.776;2022-07-23T13:53:00;3.58;;;3.25;;
9976;SDS011;5029;47.378;11.776;2022-07-23T13:58:08;3.30;;;2.92;;
9976;SDS011;5029;47.378;11.776;2022-07-23T14:03:15;3.20;;;3.00;;
9976;SDS011;5029;47.378;11.776;2022-07-23T14:08:32;4.95;;;3.15;;
9976;SDS011;5029;47.378;11.776;2022-07-23T14:13:37;3.78;;;3.47;;
9976;SDS011;5029;47.378;11.776;2022-07-23T14:18:41;3.75;;;3.45;;
9976;SDS011;5029;47.378;11.776;2022-07-23T14:23:46;3.58;;;3.35;;
9976;SDS011;5029;47.378;11.776;2022-07-23T14:28:50;3.45;;;3.25;;
9976;SDS011;5029;47.378;11.776;2022-07-23T14:33:54;3.95;;;3.53;;
9976;SDS011;5029;47.378;11.776;2022-07-23T14:38:57;4.15;;;3.80;;
9976;SDS011;5029;47.378;11.776;2022-07-23T14:44:04;4.40;;;4.00;;
9976;SDS011;5029;47.378;11.776;2022-07-23T14:49:10;4.67;;;4.27;;
9976;SDS011;5029;47.378;11.776;2022-07-23T14:54:14;6.47;;;5.40;;
9976;SDS011;5029;47.378;11.776;2022-07-23T14:59:20;6.07;;;5.10;;
9976;SDS011;5029;47.378;11.776;2022-07-23T15:04:25;5.20;;;4.70;;
9976;SDS011;5029;47.378;11.776;2022-07-23T15:09:38;5.25;;;4.75;;
9976;SDS011;5029;47.378;11.776;2022-07-23T15:14:44;4.85;;;4.35;;
9976;SDS011;5029;47.378;11.776;2022-07-23T15:19:47;5.35;;;4.95;;
9976;SDS011;5029;47.378;11.776;2022-07-23T15:24:51;6.55;;;5.50;;
9976;SDS011;5029;47.378;11.776;2022-07-23T15:29:56;5.88;;;5.38;;
9976;SDS011;5029;47.378;11.776;2022-07-23T15:35:00;5.30;;;4.82;;
9976;SDS011;5029;47.378;11.776;2022-07-23T15:40:07;5.68;;;4.70;;
9976;SDS011;5029;47.378;11.776;2022-07-23T15:45:15;5.20;;;4.70;;
9976;SDS011;5029;47.378;11.776;2022-07-23T15:50:20;5.70;;;5.18;;
9976;SDS011;5029;47.378;11.776;2022-07-23T15:55:24;5.15;;;4.75;;
9976;SDS011;5029;47.378;11.776;2022-07-23T16:00:29;5.88;;;5.40;;
9976;SDS011;5029;47.378;11.776;2022-07-23T16:05:32;5.68;;;5.20;;
9976;SDS011;5029;47.378;11.776;2022-07-23T16:10:36;5.00;;;4.57;;
9976;SDS011;5029;47.378;11.776;2022-07-23T16:15:41;5.20;;;4.80;;
9976;SDS011;5029;47.378;11.776;2022-07-23T16:20:45;5.43;;;5.00;;
9976;SDS011;5029;47.378;11.776;2022-07-23T16:25:49;5.23;;;4.73;;
9976;SDS011;5029;47.378;11.776;2022-07-23T16:30:54;6.23;;;5.63;;
9976;SDS011;5029;47.378;11.776;2022-07-23T16:35:57;6.23;;;5.73;;
9976;SDS011;5029;47.378;11.776;2022-07-23T16:41:01;6.53;;;5.93;;
9976;SDS011;5029;47.378;11.776;2022-07-23T16:46:06;6.50;;;6.00;;
9976;SDS011;5029;47.378;11.776;2022-07-23T16:51:10;6.70;;;6.10;;
9976;SDS011;5029;47.378;11.776;2022-07-23T16:56:14;6.47;;;5.90;;
9976;SDS011;5029;47.378;11.776;2022-07-23T17:01:19;6.20;;;5.60;;
9976;SDS011;5029;47.378;11.776;2022-07-23T17:06:23;7.30;;;5.90;;
9976;SDS011;5029;47.378;11.776;2022-07-23T17:11:26;6.27;;;5.77;;
9976;SDS011;5029;47.378;11.776;2022-07-23T17:16:32;6.40;;;5.90;;
9976;SDS011;5029;47.378;11.776;2022-07-23T17:21:37;6.10;;;5.50;;
9976;SDS011;5029;47.378;11.776;2022-07-23T17:26:40;6.30;;;5.80;;
9976;SDS011;5029;47.378;11.776;2022-07-23T17:31:46;6.23;;;5.63;;
9976;SDS011;5029;47.378;11.776;2022-07-23T17:36:50;5.93;;;5.37;;
9976;SDS011;5029;47.378;11.776;2022-07-23T17:41:54;6.30;;;5.87;;
9976;SDS011;5029;47.378;11.776;2022-07-23T17:46:59;5.97;;;5.47;;
9976;SDS011;5029;47.378;11.776;2022-07-23T17:52:03;5.83;;;5.43;;
9976;SDS011;5029;47.378;11.776;2022-07-23T17:57:10;5.70;;;5.20;;
9976;SDS011;5029;47.378;11.776;2022-07-23T18:02:15;5.90;;;5.40;;
9976;SDS011;5029;47.378;11.776;2022-07-23T18:07:23;7.20;;;5.63;;
9976;SDS011;5029;47.378;11.776;2022-07-23T18:12:34;7.33;;;5.77;;
9976;SDS011;5029;47.378;11.776;2022-07-23T18:17:41;5.67;;;5.13;;
9976;SDS011;5029;47.378;11.776;2022-07-23T18:22:45;6.23;;;5.67;;
9976;SDS011;5029;47.378;11.776;2022-07-23T18:27:50;6.20;;;5.70;;
9976;SDS011;5029;47.378;11.776;2022-07-23T18:32:55;6.20;;;5.57;;
9976;SDS011;5029;47.378;11.776;2022-07-23T18:38:07;6.33;;;5.83;;
9976;SDS011;5029;47.378;11.776;2022-07-23T18:43:25;6.03;;;5.53;;
9976;SDS011;5029;47.378;11.776;2022-07-23T18:48:38;5.90;;;5.40;;
9976;SDS011;5029;47.378;11.776;2022-07-23T18:53:43;6.17;;;5.67;;
9976;SDS011;5029;47.378;11.776;2022-07-23T18:58:47;5.83;;;5.43;;
9976;SDS011;5029;47.378;11.776;2022-07-23T19:09:14;5.70;;;5.30;;
9976;SDS011;5029;47.378;11.776;2022-07-23T19:14:19;6.10;;;5.50;;
9976;SDS011;5029;47.378;11.776;2022-07-23T19:19:24;7.47;;;6.03;;
9976;SDS011;5029;47.378;11.776;2022-07-23T19:24:27;6.10;;;5.70;;
9976;SDS011;5029;47.378;11.776;2022-07-23T19:29:31;6.20;;;5.60;;
9976;SDS011;5029;47.378;11.776;2022-07-23T19:34:38;6.00;;;5.50;;
9976;SDS011;5029;47.378;11.776;2022-07-23T19:39:42;6.13;;;5.63;;
9976;SDS011;5029;47.378;11.776;2022-07-23T19:44:47;6.13;;;5.53;;
9976;SDS011;5029;47.378;11.776;2022-07-23T19:49:52;6.33;;;5.80;;
9976;SDS011;5029;47.378;11.776;2022-07-23T19:54:56;6.10;;;5.60;;
9976;SDS011;5029;47.378;11.776;2022-07-23T19:59:59;6.27;;;5.67;;
9976;SDS011;5029;47.378;11.776;2022-07-23T20:05:05;6.20;;;5.63;;
9976;SDS011;5029;47.378;11.776;2022-07-23T20:10:10;7.37;;;6.03;;
9976;SDS011;5029;47.378;11.776;2022-07-23T20:15:14;6.20;;;5.80;;
9976;SDS011;5029;47.378;11.776;2022-07-23T20:20:19;7.13;;;5.30;;
9976;SDS011;5029;47.378;11.776;2022-07-23T20:25:23;5.77;;;5.30;;
9976;SDS011;5029;47.378;11.776;2022-07-23T20:30:27;6.73;;;5.50;;
9976;SDS011;5029;47.378;11.776;2022-07-23T20:35:32;7.20;;;5.43;;
9976;SDS011;5029;47.378;11.776;2022-07-23T20:40:36;5.50;;;5.00;;
9976;SDS011;5029;47.378;11.776;2022-07-23T20:45:47;5.83;;;5.33;;
9976;SDS011;5029;47.378;11.776;2022-07-23T20:50:51;7.03;;;5.20;;
9976;SDS011;5029;47.378;11.776;2022-07-23T20:55:55;8.17;;;5.80;;
9976;SDS011;5029;47.378;11.776;2022-07-23T21:01:00;5.77;;;5.20;;
9976;SDS011;5029;47.378;11.776;2022-07-23T21:06:05;5.70;;;4.97;;
9976;SDS011;5029;47.378;11.776;2022-07-23T21:11:11;6.43;;;5.83;;
9976;SDS011;5029;47.378;11.776;2022-07-23T21:16:14;5.80;;;5.23;;
9976;SDS011;5029;47.378;11.776;2022-07-23T21:21:19;6.60;;;5.30;;
9976;SDS011;5029;47.378;11.776;2022-07-23T21:26:23;6.93;;;6.27;;
9976;SDS011;5029;47.378;11.776;2022-07-23T21:31:32;6.60;;;6.10;;
9976;SDS011;5029;47.378;11.776;2022-07-23T21:36:38;7.23;;;6.50;;
9976;SDS011;5029;47.378;11.776;2022-07-23T21:41:42;6.57;;;6.07;;
9976;SDS011;5029;47.378;11.776;2022-07-23T21:46:46;6.90;;;6.20;;
9976;SDS011;5029;47.378;11.776;2022-07-23T21:51:51;7.20;;;6.60;;
9976;SDS011;5029;47.378;11.776;2022-07-23T21:56:55;6.93;;;6.33;;
9976;SDS011;5029;47.378;11.776;2022-07-23T22:01:58;7.00;;;6.30;;
9976;SDS011;5029;47.378;11.776;2022-07-23T22:07:03;7.03;;;6.33;;
9976;SDS011;5029;47.378;11.776;2022-07-23T22:12:08;6.20;;;5.70;;
9976;SDS011;5029;47.378;11.776;2022-07-23T22:17:12;6.20;;;5.80;;
9976;SDS011;5029;47.378;11.776;2022-07-23T22:22:17;6.50;;;6.00;;
9976;SDS011;5029;47.378;11.776;2022-07-23T22:27:20;6.77;;;6.00;;
9976;SDS011;5029;47.378;11.776;2022-07-23T22:32:24;6.43;;;5.93;;
9976;SDS011;5029;47.378;11.776;2022-07-23T22:37:29;7.03;;;6.33;;
9976;SDS011;5029;47.378;11.776;2022-07-23T22:42:33;6.90;;;6.27;;
9976;SDS011;5029;47.378;11.776;2022-07-23T22:47:36;7.67;;;6.97;;
9976;SDS011;5029;47.378;11.776;2022-07-23T22:52:42;7.07;;;6.40;;
9976;SDS011;5029;47.378;11.776;2022-07-23T22:57:45;6.63;;;6.13;;
9976;SDS011;5029;47.378;11.776;2022-07-23T23:02:49;7.20;;;6.30;;
9976;SDS011;5029;47.378;11.776;2022-07-23T23:07:54;6.67;;;6.10;;
9976;SDS011;5029;47.378;11.776;2022-07-23T23:12:57;6.60;;;6.00;;
9976;SDS011;5029;47.378;11.776;2022-07-23T23:18:01;6.67;;;6.07;;
9976;SDS011;5029;47.378;11.776;2022-07-23T23:23:06;6.67;;;6.07;;
9976;SDS011;5029;47.378;11.776;2022-07-23T23:28:10;6.70;;;6.10;;
9976;SDS011;5029;47.378;11.776;2022-07-23T23:33:13;8.13;;;7.33;;
9976;SDS011;5029;47.378;11.776;2022-07-23T23:38:20;7.63;;;7.00;;
9976;SDS011;5029;47.378;11.776;2022-07-23T23:43:24;7.83;;;7.13;;
9976;SDS011;5029;47.378;11.776;2022-07-23T23:48:27;10.50;;;7.13;;
9976;SDS011;5029;47.378;11.776;2022-07-23T23:53:33;8.03;;;7.30;;
9976;SDS011;5029;47.378;11.776;2022-07-23T23:58:36;8.50;;;7.80;;
